createdAt,value
2023-03-24T00:01:18.571Z,69.29
2023-03-24T00:03:46.227Z,67.78
2023-03-24T00:06:14.117Z,67.62
2023-03-24T00:08:44.170Z,67.10
2023-03-24T00:11:14.590Z,67.15
2023-03-24T00:13:43.954Z,66.95
2023-03-24T00:16:16.350Z,67.11
2023-03-24T00:18:44.157Z,67.05
2023-03-24T00:21:13.803Z,65.89
2023-03-24T00:23:42.998Z,65.84
2023-03-24T00:26:15.594Z,65.84
2023-03-24T00:28:49.460Z,65.62
2023-03-24T00:31:19.303Z,66.38
2023-03-24T00:33:51.500Z,66.63
2023-03-24T00:36:21.312Z,65.99
2023-03-24T00:38:50.481Z,66.23
2023-03-24T00:41:27.384Z,66.17
2023-03-24T00:43:58.788Z,65.31
2023-03-24T00:46:30.033Z,65.50
2023-03-24T00:49:06.326Z,66.04
2023-03-24T00:51:37.272Z,67.00
2023-03-24T00:54:05.401Z,68.17
2023-03-24T00:56:36.170Z,69.12
2023-03-24T00:59:04.838Z,69.25
2023-03-24T01:01:35.699Z,69.41
2023-03-24T01:04:06.460Z,70.16
2023-03-24T01:06:37.390Z,70.68
2023-03-24T01:09:07.536Z,71.82
2023-03-24T01:11:41.721Z,72.13
2023-03-24T01:14:10.007Z,72.65
2023-03-24T01:16:37.457Z,74.03
2023-03-24T01:19:06.984Z,76.50
2023-03-24T01:21:40.479Z,77.42
2023-03-24T01:24:10.038Z,77.21
2023-03-24T01:26:37.480Z,76.63
2023-03-24T01:29:05.312Z,76.87
2023-03-24T01:31:32.901Z,78.29
2023-03-24T01:34:01.408Z,79.44
2023-03-24T01:36:28.931Z,79.40
2023-03-24T01:38:58.705Z,79.91
2023-03-24T01:41:42.271Z,78.91
2023-03-24T01:44:35.610Z,78.70
2023-03-24T01:47:06.524Z,76.67
2023-03-24T01:49:55.416Z,74.80
2023-03-24T01:52:33.303Z,74.24
2023-03-24T01:55:10.017Z,73.43
2023-03-24T01:57:42.905Z,72.56
2023-03-24T02:00:15.333Z,72.76
2023-03-24T02:02:47.188Z,72.79
2023-03-24T02:05:16.045Z,71.33
2023-03-24T02:08:02.460Z,71.22
2023-03-24T02:10:33.699Z,70.34
2023-03-24T02:13:04.837Z,70.07
2023-03-24T02:15:38.528Z,69.88
2023-03-24T02:18:33.461Z,69.96
2023-03-24T02:21:26.956Z,69.17
2023-03-24T02:24:24.819Z,68.75
2023-03-24T02:27:14.019Z,68.83
2023-03-24T02:29:54.593Z,68.72
2023-03-24T02:32:44.794Z,68.09
2023-03-24T02:35:31.919Z,68.59
2023-03-24T02:38:14.196Z,67.54
2023-03-24T02:40:42.513Z,67.37
2023-03-24T02:43:25.331Z,67.25
2023-03-24T02:46:05.418Z,67.84
2023-03-24T02:48:41.367Z,68.17
2023-03-24T02:51:24.407Z,67.96
2023-03-24T02:54:07.593Z,68.17
2023-03-24T02:56:59.591Z,67.76
2023-03-24T02:59:43.025Z,68.06
2023-03-24T03:02:26.649Z,68.38
2023-03-24T03:05:15.067Z,67.75
2023-03-24T03:07:46.376Z,67.55
2023-03-24T03:10:24.324Z,67.49
2023-03-24T03:12:57.813Z,66.91
2023-03-24T03:15:30.046Z,66.90
2023-03-24T03:18:23.344Z,66.74
2023-03-24T03:20:54.685Z,67.01
2023-03-24T03:23:33.960Z,67.08
2023-03-24T03:26:05.428Z,67.10
2023-03-24T03:28:50.175Z,67.30
2023-03-24T03:31:24.117Z,67.38
2023-03-24T03:34:08.646Z,67.64
2023-03-24T03:36:51.151Z,67.32
2023-03-24T03:39:29.949Z,67.79
2023-03-24T03:41:58.522Z,68.13
2023-03-24T03:44:26.161Z,67.93
2023-03-24T03:46:53.739Z,68.08
2023-03-24T03:49:21.523Z,68.35
2023-03-24T03:51:50.954Z,68.46
2023-03-24T03:54:19.796Z,69.22
2023-03-24T03:56:50.756Z,69.00
2023-03-24T03:59:36.582Z,69.02
2023-03-24T04:02:35.120Z,68.96
2023-03-24T04:05:21.524Z,69.11
2023-03-24T04:08:10.380Z,68.68
2023-03-24T04:10:50.026Z,68.77
2023-03-24T04:13:38.162Z,68.62
2023-03-24T04:16:11.811Z,68.55
2023-03-24T04:18:48.944Z,68.76
2023-03-24T04:21:43.918Z,68.63
2023-03-24T04:24:35.058Z,69.03
2023-03-24T04:27:27.529Z,69.36
2023-03-24T04:30:31.346Z,69.63
2023-03-24T04:33:07.169Z,69.98
2023-03-24T04:35:45.440Z,70.01
2023-03-24T04:38:23.424Z,70.23
2023-03-24T04:40:55.877Z,69.84
2023-03-24T04:43:29.275Z,70.51
2023-03-24T04:45:58.200Z,70.36
2023-03-24T04:48:27.811Z,70.38
2023-03-24T04:50:58.890Z,70.06
2023-03-24T04:53:33.385Z,70.18
2023-03-24T04:56:18.940Z,70.62
2023-03-24T04:58:46.546Z,70.81
2023-03-24T05:01:23.340Z,70.73
2023-03-24T05:03:50.966Z,70.88
2023-03-24T05:06:18.386Z,70.71
2023-03-24T05:08:45.820Z,70.82
2023-03-24T05:11:20.977Z,71.42
2023-03-24T05:13:48.448Z,71.34
2023-03-24T05:16:16.214Z,71.09
2023-03-24T05:18:44.256Z,71.60
2023-03-24T05:21:12.397Z,71.80
2023-03-24T05:23:39.740Z,71.82
2023-03-24T05:26:07.802Z,72.12
2023-03-24T05:28:35.134Z,71.81
2023-03-24T05:31:02.818Z,71.53
2023-03-24T05:33:32.124Z,70.77
2023-03-24T05:35:59.605Z,70.97
2023-03-24T05:38:27.208Z,71.15
2023-03-24T05:41:04.044Z,71.72
2023-03-24T05:43:31.293Z,72.06
2023-03-24T05:46:02.699Z,72.82
2023-03-24T05:48:31.295Z,73.34
2023-03-24T05:50:58.735Z,73.23
2023-03-24T05:53:26.074Z,74.05
2023-03-24T05:55:53.974Z,74.47
2023-03-24T05:58:21.725Z,75.04
2023-03-24T06:01:07.647Z,74.69
2023-03-24T06:03:35.237Z,74.80
2023-03-24T06:06:02.903Z,74.34
2023-03-24T06:08:34.193Z,75.03
2023-03-24T06:11:03.364Z,74.52
2023-03-24T06:13:31.504Z,75.38
2023-03-24T06:16:02.216Z,75.05
2023-03-24T06:18:32.340Z,74.44
2023-03-24T06:21:01.033Z,74.53
2023-03-24T06:23:29.881Z,74.96
2023-03-24T06:26:01.666Z,75.81
2023-03-24T06:28:30.702Z,75.65
2023-03-24T06:30:59.221Z,76.21
2023-03-24T06:33:26.444Z,75.71
2023-03-24T06:35:53.941Z,75.99
2023-03-24T06:38:27.475Z,75.62
2023-03-24T06:40:54.921Z,75.87
2023-03-24T06:43:22.401Z,76.61
2023-03-24T06:45:49.876Z,77.65
2023-03-24T06:48:17.288Z,78.14
2023-03-24T06:50:44.950Z,78.50
2023-03-24T06:53:13.404Z,78.34
2023-03-24T06:55:41.343Z,78.18
2023-03-24T06:58:08.726Z,78.27
2023-03-24T07:00:37.413Z,77.54
2023-03-24T07:03:12.421Z,76.60
2023-03-24T07:05:41.919Z,76.30
2023-03-24T07:08:30.093Z,75.64
2023-03-24T07:10:57.426Z,74.96
2023-03-24T07:13:24.694Z,75.05
2023-03-24T07:15:52.333Z,73.35
2023-03-24T07:18:20.767Z,73.68
2023-03-24T07:20:55.721Z,73.29
2023-03-24T07:23:23.294Z,73.25
2023-03-24T07:25:50.638Z,73.03
2023-03-24T07:28:18.087Z,72.81
2023-03-24T07:30:45.753Z,72.31
2023-03-24T07:33:15.042Z,73.24
2023-03-24T07:35:43.627Z,73.94
2023-03-24T07:38:11.056Z,72.98
2023-03-24T07:40:38.598Z,72.44
2023-03-24T07:43:06.951Z,72.46
2023-03-24T07:45:34.540Z,72.92
2023-03-24T07:48:08.115Z,72.94
2023-03-24T07:50:35.671Z,73.21
2023-03-24T07:53:02.973Z,73.05
2023-03-24T07:55:30.410Z,72.28
2023-03-24T07:57:59.894Z,73.03
2023-03-24T08:00:29.677Z,71.67
2023-03-24T08:02:58.210Z,71.18
2023-03-24T08:05:25.385Z,71.61
2023-03-24T08:07:58.486Z,72.62
2023-03-24T08:10:33.441Z,72.88
2023-03-24T08:13:01.059Z,70.17
2023-03-24T08:15:28.944Z,71.79
2023-03-24T08:17:57.338Z,70.86
2023-03-24T08:20:27.528Z,70.00
2023-03-24T08:22:56.922Z,68.69
2023-03-24T08:25:27.071Z,68.98
2023-03-24T08:27:55.006Z,67.73
2023-03-24T08:30:25.450Z,66.69
2023-03-24T08:33:01.336Z,66.12
2023-03-24T08:35:33.342Z,65.25
2023-03-24T08:38:06.116Z,64.52
2023-03-24T08:40:38.970Z,64.34
2023-03-24T08:43:09.918Z,65.46
2023-03-24T08:45:37.803Z,65.57
2023-03-24T08:48:07.785Z,66.05
2023-03-24T08:50:40.309Z,65.24
2023-03-24T08:53:09.423Z,64.63
2023-03-24T08:55:38.841Z,63.76
2023-03-24T08:58:06.759Z,64.00
2023-03-24T09:00:33.922Z,64.63
2023-03-24T09:03:01.936Z,64.26
2023-03-24T09:05:54.273Z,64.12
2023-03-24T09:08:19.476Z,62.05
2023-03-24T09:10:52.906Z,61.71
2023-03-24T09:13:21.438Z,62.07
2023-03-24T09:15:52.366Z,62.64
2023-03-24T09:18:22.247Z,62.10
2023-03-24T09:20:50.365Z,62.86
2023-03-24T09:23:20.574Z,62.40
2023-03-24T09:25:56.504Z,62.90
2023-03-24T09:28:24.009Z,61.90
2023-03-24T09:30:52.039Z,62.02
2023-03-24T09:33:20.480Z,62.53
2023-03-24T09:35:55.641Z,62.04
2023-03-24T09:38:23.840Z,62.06
2023-03-24T09:41:03.903Z,62.72
2023-03-24T09:43:50.410Z,62.26
2023-03-24T09:46:34.511Z,62.25
2023-03-24T09:49:02.906Z,62.59
2023-03-24T09:51:36.034Z,62.68
2023-03-24T09:54:09.190Z,61.62
2023-03-24T09:56:39.958Z,62.05
2023-03-24T09:59:16.329Z,61.37
2023-03-24T10:01:44.312Z,63.27
2023-03-24T10:04:20.203Z,62.30
2023-03-24T10:06:53.327Z,63.41
2023-03-24T10:09:35.482Z,62.12
2023-03-24T10:12:15.050Z,62.11
2023-03-24T10:14:49.131Z,62.06
2023-03-24T10:17:54.874Z,61.94
2023-03-24T10:20:53.070Z,61.35
2023-03-24T10:23:59.283Z,60.50
2023-03-24T10:26:44.969Z,59.72
2023-03-24T10:29:33.161Z,58.25
2023-03-24T10:32:26.504Z,57.52
2023-03-24T10:35:00.610Z,56.73
2023-03-24T10:37:31.646Z,57.73
2023-03-24T10:40:00.458Z,56.81
2023-03-24T10:42:33.388Z,58.87
2023-03-24T10:45:03.244Z,60.16
2023-03-24T10:47:33.362Z,58.38
2023-03-24T10:50:12.345Z,56.43
2023-03-24T10:52:49.087Z,54.61
2023-03-24T10:55:19.502Z,55.10
2023-03-24T10:57:59.519Z,54.94
2023-03-24T11:00:30.738Z,54.67
2023-03-24T11:03:01.969Z,55.10
2023-03-24T11:05:34.187Z,54.03
2023-03-24T11:08:32.495Z,55.01
2023-03-24T11:11:02.131Z,54.72
2023-03-24T11:13:34.084Z,55.44
2023-03-24T11:16:17.358Z,55.63
2023-03-24T11:19:06.498Z,55.34
2023-03-24T11:21:38.558Z,55.56
2023-03-24T11:24:16.078Z,55.97
2023-03-24T11:27:02.478Z,56.16
2023-03-24T11:29:34.547Z,56.78
2023-03-24T11:32:03.884Z,55.39
2023-03-24T11:34:42.535Z,55.57
2023-03-24T11:37:22.467Z,53.44
2023-03-24T11:40:12.783Z,54.50
2023-03-24T11:42:51.383Z,55.05
2023-03-24T11:45:40.385Z,53.50
2023-03-24T11:48:34.200Z,53.32
2023-03-24T11:51:03.491Z,52.05
2023-03-24T11:53:58.498Z,53.67
2023-03-24T11:56:50.552Z,53.80
2023-03-24T11:59:42.561Z,53.13
2023-03-24T12:02:18.520Z,53.11
2023-03-24T12:05:02.721Z,53.56
2023-03-24T12:08:18.919Z,54.90
2023-03-24T12:10:56.690Z,53.67
2023-03-24T12:13:50.923Z,53.90
2023-03-24T12:16:57.914Z,52.99
2023-03-24T12:20:02.607Z,53.31
2023-03-24T12:22:47.740Z,53.13
2023-03-24T12:25:39.953Z,51.04
2023-03-24T12:28:07.222Z,52.88
2023-03-24T12:30:43.255Z,52.57
2023-03-24T12:33:40.475Z,53.30
2023-03-24T12:36:37.587Z,53.68
2023-03-24T12:39:11.924Z,52.28
2023-03-24T12:42:01.640Z,52.78
2023-03-24T12:44:53.141Z,52.27
2023-03-24T12:47:36.125Z,53.11
2023-03-24T12:50:28.497Z,52.27
2023-03-24T12:53:12.030Z,53.53
2023-03-24T12:55:56.633Z,52.06
2023-03-24T12:58:38.783Z,52.94
2023-03-24T13:01:19.638Z,53.57
2023-03-24T13:03:51.562Z,52.92
2023-03-24T13:06:25.128Z,53.88
2023-03-24T13:09:19.122Z,53.61
2023-03-24T13:11:58.944Z,54.39
2023-03-24T13:14:49.002Z,53.70
2023-03-24T13:17:45.231Z,54.44
2023-03-24T13:20:17.481Z,54.17
2023-03-24T13:22:44.976Z,54.82
2023-03-24T13:25:50.991Z,55.85
2023-03-24T13:28:29.022Z,55.85
2023-03-24T13:31:00.106Z,55.93
2023-03-24T13:33:34.570Z,54.38
2023-03-24T13:36:12.581Z,53.47
2023-03-24T13:39:01.450Z,53.65
2023-03-24T13:41:35.631Z,53.64
2023-03-24T13:44:17.090Z,52.67
2023-03-24T13:46:59.399Z,52.95
2023-03-24T13:49:26.569Z,53.05
2023-03-24T13:51:53.731Z,53.66
2023-03-24T13:54:24.263Z,52.25
2023-03-24T13:57:14.684Z,52.64
2023-03-24T14:00:14.549Z,53.35
2023-03-24T14:02:54.327Z,53.85
2023-03-24T14:05:31.949Z,53.23
2023-03-24T14:08:05.987Z,53.19
2023-03-24T14:10:46.672Z,53.31
2023-03-24T14:13:14.277Z,53.76
2023-03-24T14:15:46.395Z,54.26
2023-03-24T14:18:26.268Z,54.52
2023-03-24T14:20:57.043Z,54.41
2023-03-24T14:23:49.023Z,55.19
2023-03-24T14:26:34.455Z,54.90
2023-03-24T14:29:03.081Z,54.76
2023-03-24T14:31:34.884Z,55.57
2023-03-24T14:34:25.681Z,55.60
2023-03-24T14:37:08.053Z,54.99
2023-03-24T14:39:48.947Z,55.18
2023-03-24T14:42:36.149Z,54.92
2023-03-24T14:45:05.975Z,55.41
2023-03-24T14:47:37.781Z,55.96
2023-03-24T14:50:32.641Z,55.48
2023-03-24T14:53:03.905Z,56.00
2023-03-24T14:55:31.838Z,56.22
2023-03-24T14:58:20.960Z,56.67
2023-03-24T15:01:06.600Z,56.99
2023-03-24T15:03:58.200Z,57.02
2023-03-24T15:06:25.874Z,57.49
2023-03-24T15:08:58.629Z,57.52
2023-03-24T15:11:41.040Z,57.47
2023-03-24T15:14:24.144Z,58.04
2023-03-24T15:16:58.034Z,57.91
2023-03-24T15:19:31.172Z,58.42
2023-03-24T15:22:04.569Z,58.47
2023-03-24T15:24:36.480Z,58.85
2023-03-24T15:27:06.964Z,59.21
2023-03-24T15:29:40.251Z,59.64
2023-03-24T15:32:19.580Z,59.40
2023-03-24T15:34:56.690Z,59.88
2023-03-24T15:37:40.596Z,59.87
2023-03-24T15:40:32.168Z,60.15
2023-03-24T15:43:03.695Z,60.36
2023-03-24T15:45:44.062Z,60.89
2023-03-24T15:48:19.527Z,60.43
2023-03-24T15:51:00.118Z,60.86
2023-03-24T15:53:52.092Z,61.10
2023-03-24T15:56:28.016Z,61.46
2023-03-24T15:59:04.275Z,61.30
2023-03-24T16:01:36.441Z,62.09
2023-03-24T16:04:23.882Z,63.32
2023-03-24T16:06:54.476Z,62.66
2023-03-24T16:09:38.175Z,63.72
2023-03-24T16:12:11.093Z,64.17
2023-03-24T16:14:39.132Z,64.01
2023-03-24T16:17:06.914Z,64.33
2023-03-24T16:19:35.255Z,65.17
2023-03-24T16:22:02.591Z,65.56
2023-03-24T16:24:31.346Z,65.20
2023-03-24T16:26:58.626Z,65.48
2023-03-24T16:29:27.067Z,65.91
2023-03-24T16:31:57.265Z,66.64
2023-03-24T16:34:25.620Z,66.60
2023-03-24T16:36:54.716Z,67.04
2023-03-24T16:39:27.512Z,67.34
2023-03-24T16:41:57.934Z,67.71
2023-03-24T16:44:32.398Z,68.35
2023-03-24T16:47:00.028Z,69.27
2023-03-24T16:49:28.857Z,69.55
2023-03-24T16:51:56.459Z,69.37
2023-03-24T16:54:24.800Z,70.20
2023-03-24T16:56:57.262Z,70.00
2023-03-24T16:59:24.974Z,70.22
2023-03-24T17:01:53.134Z,70.61
2023-03-24T17:04:23.769Z,70.56
2023-03-24T17:06:54.681Z,70.45
2023-03-24T17:09:23.003Z,71.87
2023-03-24T17:12:02.700Z,71.13
2023-03-24T17:14:31.366Z,71.21
2023-03-24T17:17:00.102Z,71.66
2023-03-24T17:19:28.452Z,71.50
2023-03-24T17:22:02.339Z,71.54
2023-03-24T17:24:36.144Z,70.64
2023-03-24T17:27:03.966Z,70.31
2023-03-24T17:29:32.003Z,70.40
2023-03-24T17:31:59.784Z,70.17
2023-03-24T17:34:26.972Z,70.38
2023-03-24T17:36:54.842Z,70.49
2023-03-24T17:39:22.725Z,70.23
2023-03-24T17:41:53.072Z,70.56
2023-03-24T17:44:21.058Z,70.48
2023-03-24T17:46:49.291Z,70.97
2023-03-24T17:49:17.251Z,71.06
2023-03-24T17:51:45.076Z,71.33
2023-03-24T17:54:14.480Z,71.24
2023-03-24T17:56:43.595Z,71.83
2023-03-24T17:59:11.860Z,72.04
2023-03-24T18:01:43.438Z,72.29
2023-03-24T18:04:11.403Z,72.55
2023-03-24T18:06:43.514Z,73.11
2023-03-24T18:09:15.181Z,73.81
2023-03-24T18:11:42.348Z,74.52
2023-03-24T18:14:10.639Z,74.92
2023-03-24T18:16:39.996Z,75.99
2023-03-24T18:19:09.909Z,76.16
2023-03-24T18:21:40.456Z,76.13
2023-03-24T18:24:10.881Z,75.98
2023-03-24T18:26:39.078Z,76.31
2023-03-24T18:29:13.721Z,76.37
2023-03-24T18:31:41.493Z,76.32
2023-03-24T18:34:09.875Z,76.35
2023-03-24T18:36:37.966Z,75.65
2023-03-24T18:39:09.974Z,76.79
2023-03-24T18:41:43.206Z,75.68
2023-03-24T18:44:18.615Z,75.16
2023-03-24T18:46:47.061Z,75.13
2023-03-24T18:49:15.918Z,74.17
2023-03-24T18:51:46.051Z,73.96
2023-03-24T18:54:15.732Z,74.06
2023-03-24T18:56:45.226Z,73.34
2023-03-24T18:59:15.325Z,73.94
2023-03-24T19:01:48.052Z,75.41
2023-03-24T19:04:24.238Z,76.08
2023-03-24T19:06:57.172Z,76.54
2023-03-24T19:09:25.484Z,77.43
2023-03-24T19:11:54.065Z,78.50
2023-03-24T19:14:22.485Z,78.99
2023-03-24T19:16:50.685Z,79.50
2023-03-24T19:19:21.694Z,80.67
2023-03-24T19:21:49.999Z,81.75
2023-03-24T19:24:18.957Z,81.22
2023-03-24T19:26:47.749Z,81.08
2023-03-24T19:29:16.115Z,79.84
2023-03-24T19:31:45.448Z,79.25
2023-03-24T19:34:14.644Z,76.88
2023-03-24T19:36:48.354Z,77.77
2023-03-24T19:39:18.313Z,79.66
2023-03-24T19:41:47.056Z,81.67
2023-03-24T19:44:16.605Z,82.27
2023-03-24T19:46:48.416Z,80.71
2023-03-24T19:49:17.117Z,81.71
2023-03-24T19:51:45.312Z,76.14
2023-03-24T19:54:13.835Z,74.41
2023-03-24T19:56:47.594Z,72.00
2023-03-24T19:59:16.327Z,70.87
2023-03-24T20:01:44.645Z,71.00
2023-03-24T20:04:12.464Z,71.75
2023-03-24T20:06:45.995Z,72.16
2023-03-24T20:09:15.401Z,73.10
2023-03-24T20:11:43.831Z,74.67
2023-03-24T20:14:12.362Z,75.73
2023-03-24T20:16:41.309Z,76.26
2023-03-24T20:19:10.309Z,76.60
2023-03-24T20:21:38.815Z,77.38
2023-03-24T20:24:08.168Z,77.09
2023-03-24T20:26:37.628Z,78.48
2023-03-24T20:29:06.188Z,78.69
2023-03-24T20:31:34.782Z,78.43
2023-03-24T20:34:05.076Z,81.17
2023-03-24T20:36:33.645Z,85.66
2023-03-24T20:39:02.901Z,88.57
2023-03-24T20:41:31.303Z,93.53
2023-03-24T20:44:01.237Z,96.83
2023-03-24T20:46:35.915Z,99.13
2023-03-24T20:49:04.715Z,100.00
2023-03-24T20:51:35.350Z,100.00
2023-03-24T20:54:03.880Z,100.00
2023-03-24T20:56:32.536Z,100.00
2023-03-24T20:59:07.488Z,100.00
2023-03-24T21:01:37.710Z,100.00
2023-03-24T21:04:09.414Z,100.00
2023-03-24T21:06:40.958Z,100.00
2023-03-24T21:09:10.237Z,100.00
2023-03-24T21:11:40.428Z,100.00
2023-03-24T21:14:08.839Z,100.00
2023-03-24T21:16:38.294Z,100.00
2023-03-24T21:19:08.438Z,100.00
2023-03-24T21:21:37.156Z,100.00
2023-03-24T21:24:05.732Z,100.00
2023-03-24T21:26:33.248Z,100.00
2023-03-24T21:29:01.659Z,100.00
2023-03-24T21:31:30.849Z,100.00
2023-03-24T21:33:59.067Z,100.00
2023-03-24T21:36:31.261Z,100.00
2023-03-24T21:38:58.828Z,100.00
2023-03-24T21:41:26.768Z,100.00
2023-03-24T21:43:54.656Z,100.00
2023-03-24T21:46:27.247Z,100.00
2023-03-24T21:48:59.708Z,100.00
2023-03-24T21:51:34.658Z,100.00
2023-03-24T21:54:03.796Z,100.00
2023-03-24T21:56:32.640Z,100.00
2023-03-24T21:59:00.843Z,100.00
2023-03-24T22:01:29.699Z,100.00
2023-03-24T22:03:59.325Z,100.00
2023-03-24T22:06:29.523Z,100.00
2023-03-24T22:09:06.803Z,100.00
2023-03-24T22:11:35.694Z,100.00
2023-03-24T22:14:05.028Z,100.00
2023-03-24T22:16:33.284Z,100.00
2023-03-24T22:19:01.917Z,100.00
2023-03-24T22:21:32.466Z,100.00
2023-03-24T22:23:59.930Z,100.00
2023-03-24T22:26:29.417Z,100.00
2023-03-24T22:28:56.887Z,100.00
2023-03-24T22:31:25.408Z,100.00
2023-03-24T22:33:52.693Z,100.00
2023-03-24T22:36:20.888Z,100.00
2023-03-24T22:38:49.230Z,100.00
2023-03-24T22:41:16.710Z,100.00
2023-03-24T22:43:44.271Z,100.00
2023-03-24T22:46:11.719Z,100.00
2023-03-24T22:48:45.096Z,100.00
2023-03-24T22:51:17.083Z,100.00
2023-03-24T22:53:44.261Z,100.00
2023-03-24T22:56:12.231Z,100.00
2023-03-24T22:58:40.598Z,100.00
2023-03-24T23:01:09.284Z,100.00
2023-03-24T23:03:38.953Z,100.00
2023-03-24T23:06:07.649Z,100.00
2023-03-24T23:08:37.774Z,100.00
2023-03-24T23:11:08.618Z,100.00
2023-03-24T23:13:36.067Z,100.00
2023-03-24T23:16:03.736Z,100.00
2023-03-24T23:18:31.871Z,100.00
2023-03-24T23:21:09.482Z,100.00
2023-03-24T23:23:38.745Z,100.00
2023-03-24T23:26:26.737Z,100.00
2023-03-24T23:29:02.352Z,100.00
2023-03-24T23:31:30.247Z,100.00
2023-03-24T23:33:58.849Z,100.00
2023-03-24T23:36:28.818Z,100.00
2023-03-24T23:38:56.610Z,100.00
2023-03-24T23:41:25.397Z,100.00
2023-03-24T23:43:54.104Z,100.00
2023-03-24T23:46:24.123Z,100.00
2023-03-24T23:48:58.981Z,100.00
2023-03-24T23:51:26.417Z,100.00
2023-03-24T23:53:53.874Z,100.00
2023-03-24T23:56:25.357Z,100.00
2023-03-24T23:58:52.849Z,100.00
